createdAt,value
2019-04-10T00:01:19.577Z,123.20
2019-04-10T00:03:48.593Z,127.77
2019-04-10T00:06:18.555Z,110.33
2019-04-10T00:08:47.677Z,116.40
2019-04-10T00:11:16.604Z,113.70
2019-04-10T00:13:45.549Z,119.03
2019-04-10T00:16:14.441Z,126.87
2019-04-10T00:18:44.240Z,115.30
2019-04-10T00:21:14.133Z,121.57
2019-04-10T00:23:43.669Z,115.97
2019-04-10T00:26:13.190Z,114.47
2019-04-10T00:28:43.503Z,119.00
2019-04-10T00:31:12.515Z,118.07
2019-04-10T00:33:41.359Z,110.27
2019-04-10T00:36:10.298Z,107.27
2019-04-10T00:38:39.958Z,109.27
2019-04-10T00:41:10.101Z,118.00
2019-04-10T00:43:40.061Z,117.40
2019-04-10T00:46:10.257Z,111.53
2019-04-10T00:48:39.776Z,107.80
2019-04-10T00:51:08.917Z,118.30
2019-04-10T00:53:37.753Z,121.00
2019-04-10T00:56:06.609Z,121.90
2019-04-10T00:58:35.508Z,121.73
2019-04-10T01:01:05.517Z,106.60
2019-04-10T01:03:40.080Z,107.30
2019-04-10T01:06:09.078Z,107.80
2019-04-10T01:08:37.942Z,103.53
2019-04-10T01:11:06.810Z,106.40
2019-04-10T01:13:36.601Z,100.87
2019-04-10T01:16:07.127Z,100.33
2019-04-10T01:18:37.323Z,99.03
2019-04-10T01:21:06.502Z,108.23
2019-04-10T01:23:35.370Z,102.03
2019-04-10T01:26:05.209Z,104.00
2019-04-10T01:28:34.286Z,94.33
2019-04-10T01:31:03.218Z,92.17
2019-04-10T01:33:32.525Z,96.70
2019-04-10T01:36:02.651Z,107.67
2019-04-10T01:38:31.689Z,98.97
2019-04-10T01:41:01.483Z,99.30
2019-04-10T01:43:30.935Z,99.60
2019-04-10T01:46:00.050Z,97.97
2019-04-10T01:48:29.885Z,99.57
2019-04-10T01:50:59.230Z,101.40
2019-04-10T01:53:28.098Z,106.37
2019-04-10T01:55:57.633Z,109.27
2019-04-10T01:58:27.353Z,111.37
2019-04-10T02:00:57.781Z,104.27
2019-04-10T02:03:27.721Z,119.90
2019-04-10T02:05:56.871Z,102.77
2019-04-10T02:08:25.812Z,110.23
2019-04-10T02:10:54.723Z,112.10
2019-04-10T02:13:23.620Z,110.83
2019-04-10T02:15:52.496Z,105.13
2019-04-10T02:18:21.466Z,105.87
2019-04-10T02:20:51.449Z,100.87
2019-04-10T02:23:20.715Z,102.27
2019-04-10T02:25:49.714Z,104.90
2019-04-10T02:28:18.665Z,105.93
2019-04-10T02:30:47.904Z,106.20
2019-04-10T02:33:17.878Z,110.30
2019-04-10T02:35:47.728Z,109.70
2019-04-10T02:38:35.850Z,112.10
2019-04-10T02:40:47.620Z,112.03
2019-04-10T02:43:16.750Z,105.17
2019-04-10T02:45:46.898Z,104.10
2019-04-10T02:48:17.105Z,99.07
2019-04-10T02:50:46.197Z,101.90
2019-04-10T02:53:15.426Z,95.63
2019-04-10T02:55:44.841Z,97.90
2019-04-10T02:58:14.207Z,95.70
2019-04-10T03:00:44.137Z,97.97
2019-04-10T03:03:13.812Z,100.93
2019-04-10T03:05:44.576Z,102.00
2019-04-10T03:08:15.468Z,108.50
2019-04-10T03:10:49.724Z,111.83
2019-04-10T03:13:14.718Z,109.67
2019-04-10T03:15:43.889Z,103.40
2019-04-10T03:18:12.874Z,99.47
2019-04-10T03:20:42.682Z,101.87
2019-04-10T03:23:11.734Z,99.23
2019-04-10T03:25:41.379Z,101.67
2019-04-10T03:28:11.160Z,92.70
2019-04-10T03:31:01.081Z,99.00
2019-04-10T03:33:39.607Z,100.83
2019-04-10T03:36:07.761Z,108.00
2019-04-10T03:38:49.407Z,100.37
2019-04-10T03:41:08.078Z,113.33
2019-04-10T03:43:38.142Z,114.53
2019-04-10T03:46:07.108Z,112.73
2019-04-10T03:48:36.779Z,104.70
2019-04-10T03:51:06.284Z,106.90
2019-04-10T03:53:35.181Z,100.63
2019-04-10T03:56:04.054Z,105.07
2019-04-10T03:58:33.604Z,111.37
2019-04-10T04:01:02.811Z,107.63
2019-04-10T04:03:32.874Z,105.10
2019-04-10T04:06:01.810Z,104.23
2019-04-10T04:08:31.892Z,108.23
2019-04-10T04:11:01.512Z,106.67
2019-04-10T04:13:31.310Z,101.43
2019-04-10T04:16:00.352Z,110.33
2019-04-10T04:18:29.271Z,109.67
2019-04-10T04:20:59.125Z,108.77
2019-04-10T04:23:28.364Z,100.57
2019-04-10T04:25:57.259Z,103.47
2019-04-10T04:28:26.145Z,107.73
2019-04-10T04:30:54.988Z,105.90
2019-04-10T04:33:23.924Z,106.70
2019-04-10T04:35:53.214Z,108.63
2019-04-10T04:38:22.129Z,102.23
2019-04-10T04:40:51.464Z,104.63
2019-04-10T04:43:21.856Z,118.50
2019-04-10T04:45:53.338Z,123.67
2019-04-10T04:48:22.222Z,114.53
2019-04-10T04:50:52.083Z,110.63
2019-04-10T04:53:21.334Z,112.70
2019-04-10T04:55:51.296Z,116.17
2019-04-10T04:58:20.477Z,109.50
2019-04-10T05:00:50.683Z,114.07
2019-04-10T05:03:20.679Z,115.57
2019-04-10T05:05:49.987Z,100.87
2019-04-10T05:08:19.127Z,110.47
2019-04-10T05:10:47.995Z,111.37
2019-04-10T05:13:17.928Z,130.30
2019-04-10T05:15:47.119Z,152.97
2019-04-10T05:18:15.945Z,124.80
2019-04-10T05:20:48.714Z,122.63
2019-04-10T05:23:16.083Z,141.20
2019-04-10T05:25:45.511Z,129.10
2019-04-10T05:28:15.393Z,136.63
2019-04-10T05:30:45.245Z,118.27
2019-04-10T05:33:14.228Z,135.40
2019-04-10T05:35:43.915Z,130.90
2019-04-10T05:38:12.976Z,139.00
2019-04-10T05:40:42.230Z,131.30
2019-04-10T05:43:11.485Z,137.53
2019-04-10T05:45:40.747Z,151.40
2019-04-10T05:48:09.641Z,137.07
2019-04-10T05:50:38.513Z,137.63
2019-04-10T05:53:07.772Z,128.97
2019-04-10T05:55:37.146Z,129.97
2019-04-10T05:58:07.111Z,137.50
2019-04-10T06:00:36.694Z,142.77
2019-04-10T06:03:06.201Z,136.43
2019-04-10T06:05:35.190Z,124.50
2019-04-10T06:08:04.108Z,120.87
2019-04-10T06:10:34.174Z,125.27
2019-04-10T06:13:03.267Z,116.37
2019-04-10T06:15:32.168Z,125.30
2019-04-10T06:18:01.016Z,127.13
2019-04-10T06:20:29.893Z,128.93
2019-04-10T06:22:59.148Z,143.43
2019-04-10T06:25:31.668Z,135.50
2019-04-10T06:28:03.529Z,126.57
2019-04-10T06:30:32.421Z,123.03
2019-04-10T06:33:02.187Z,113.30
2019-04-10T06:35:32.255Z,108.83
2019-04-10T06:38:02.977Z,100.20
2019-04-10T06:40:33.918Z,100.47
2019-04-10T06:43:02.829Z,101.67
2019-04-10T06:45:31.783Z,98.53
2019-04-10T06:48:00.722Z,103.33
2019-04-10T06:50:30.497Z,98.93
2019-04-10T06:53:00.194Z,85.20
2019-04-10T06:55:29.955Z,84.07
2019-04-10T06:57:59.349Z,77.07
2019-04-10T07:00:28.752Z,76.30
2019-04-10T07:02:57.584Z,79.60
2019-04-10T07:05:36.999Z,77.10
2019-04-10T07:08:06.139Z,72.60
2019-04-10T07:10:36.193Z,72.50
2019-04-10T07:12:58.147Z,67.50
2019-04-10T07:15:27.364Z,66.40
2019-04-10T07:17:56.254Z,60.03
2019-04-10T07:20:26.048Z,55.40
2019-04-10T07:22:55.244Z,56.17
2019-04-10T07:25:25.778Z,56.33
2019-04-10T07:27:54.822Z,49.67
2019-04-10T07:30:26.212Z,47.83
2019-04-10T07:32:55.111Z,46.27
2019-04-10T07:35:24.112Z,46.73
2019-04-10T07:37:56.033Z,48.10
2019-04-10T07:40:23.512Z,50.60
2019-04-10T07:42:52.561Z,49.10
2019-04-10T07:45:26.218Z,56.67
2019-04-10T07:47:51.999Z,66.33
2019-04-10T07:50:21.059Z,53.33
2019-04-10T07:52:50.059Z,55.83
2019-04-10T07:55:19.100Z,46.97
2019-04-10T07:57:49.280Z,51.93
2019-04-10T08:00:18.561Z,45.93
2019-04-10T08:02:47.385Z,46.83
2019-04-10T08:05:16.651Z,52.93
2019-04-10T08:07:45.657Z,50.00
2019-04-10T08:10:15.742Z,52.33
2019-04-10T08:12:49.082Z,52.27
2019-04-10T08:15:15.348Z,48.90
2019-04-10T08:17:44.432Z,48.10
2019-04-10T08:20:13.836Z,35.37
2019-04-10T08:22:42.787Z,38.75
2019-04-10T08:25:11.951Z,34.90
2019-04-10T08:27:41.691Z,37.57
2019-04-10T08:30:11.185Z,34.77
2019-04-10T08:32:50.921Z,29.30
2019-04-10T08:35:11.304Z,33.20
2019-04-10T08:37:41.079Z,27.43
2019-04-10T08:40:11.613Z,30.13
2019-04-10T08:42:44.656Z,30.73
2019-04-10T08:45:11.767Z,32.43
2019-04-10T08:47:40.630Z,35.03
2019-04-10T08:50:09.765Z,33.57
2019-04-10T08:52:39.089Z,32.70
2019-04-10T08:55:08.366Z,37.97
2019-04-10T08:57:38.221Z,34.23
2019-04-10T09:00:08.210Z,31.40
2019-04-10T09:02:38.136Z,30.17
2019-04-10T09:05:11.264Z,29.53
2019-04-10T09:07:40.217Z,26.57
2019-04-10T09:10:10.141Z,20.40
2019-04-10T09:12:39.319Z,21.13
2019-04-10T09:15:08.274Z,23.90
2019-04-10T09:17:37.705Z,26.03
2019-04-10T09:20:08.671Z,23.77
2019-04-10T09:23:05.578Z,23.33
2019-04-10T09:25:09.248Z,25.87
2019-04-10T09:27:38.218Z,28.70
2019-04-10T09:30:08.714Z,27.20
2019-04-10T09:32:38.908Z,30.63
2019-04-10T09:35:09.066Z,28.77
2019-04-10T09:37:38.072Z,27.90
2019-04-10T09:40:08.076Z,31.17
2019-04-10T09:42:37.091Z,27.43
2019-04-10T09:45:06.438Z,30.07
2019-04-10T09:47:35.311Z,34.60
2019-04-10T09:50:06.034Z,31.47
2019-04-10T09:52:35.641Z,31.20
2019-04-10T09:55:07.573Z,33.63
2019-04-10T09:57:36.832Z,30.10
2019-04-10T10:00:08.049Z,32.17
2019-04-10T10:02:37.848Z,33.00
2019-04-10T10:05:07.031Z,26.83
2019-04-10T10:07:36.855Z,29.37
2019-04-10T10:10:08.715Z,28.10
2019-04-10T10:12:38.670Z,28.83
2019-04-10T10:15:09.492Z,32.10
2019-04-10T10:17:39.193Z,29.93
2019-04-10T10:20:11.329Z,25.50
2019-04-10T10:22:41.109Z,27.20
2019-04-10T10:25:11.173Z,23.00
2019-04-10T10:27:40.755Z,23.77
2019-04-10T10:30:11.572Z,25.97
2019-04-10T10:32:42.114Z,22.50
2019-04-10T10:35:11.532Z,23.33
2019-04-10T10:37:40.968Z,27.40
2019-04-10T10:40:11.760Z,25.97
2019-04-10T10:42:41.426Z,26.17
2019-04-10T10:45:11.021Z,30.17
2019-04-10T10:47:40.474Z,31.97
2019-04-10T10:50:09.903Z,34.67
2019-04-10T10:52:39.764Z,33.23
2019-04-10T10:55:09.654Z,30.10
2019-04-10T10:57:39.569Z,31.00
2019-04-10T11:00:11.921Z,33.77
2019-04-10T11:02:39.893Z,29.97
2019-04-10T11:05:08.932Z,37.47
2019-04-10T11:07:38.869Z,33.13
2019-04-10T11:10:08.622Z,35.00
2019-04-10T11:12:38.457Z,35.20
2019-04-10T11:15:07.955Z,33.83
2019-04-10T11:17:38.245Z,35.90
2019-04-10T11:20:12.842Z,31.43
2019-04-10T11:22:42.363Z,32.77
2019-04-10T11:25:12.234Z,32.93
2019-04-10T11:27:42.008Z,28.97
2019-04-10T11:30:12.527Z,30.33
2019-04-10T11:32:42.221Z,31.50
2019-04-10T11:35:13.107Z,32.10
2019-04-10T11:37:46.855Z,32.50
2019-04-10T11:40:16.309Z,30.87
2019-04-10T11:42:44.696Z,34.73
2019-04-10T11:45:18.156Z,33.50
2019-04-10T11:47:47.321Z,41.43
2019-04-10T11:50:18.561Z,36.00
2019-04-10T11:52:52.497Z,35.83
2019-04-10T11:55:21.332Z,36.97
2019-04-10T11:57:51.267Z,31.60
2019-04-10T12:00:23.705Z,35.93
2019-04-10T12:02:56.600Z,30.60
2019-04-10T12:05:25.468Z,33.03
2019-04-10T12:08:16.223Z,31.90
2019-04-10T12:12:55.132Z,31.40
2019-04-10T12:15:23.996Z,35.70
2019-04-10T12:17:53.863Z,37.37
2019-04-10T12:20:23.012Z,35.47
2019-04-10T12:22:52.431Z,38.17
2019-04-10T12:25:21.438Z,32.30
2019-04-10T12:27:51.502Z,29.77
2019-04-10T12:30:21.764Z,18.30
2019-04-10T12:32:50.786Z,21.53
2019-04-10T12:35:20.477Z,20.23
2019-04-10T12:37:57.772Z,20.50
2019-04-10T12:40:21.535Z,19.83
2019-04-10T12:42:52.361Z,18.60
2019-04-10T12:45:22.246Z,20.37
2019-04-10T12:47:52.325Z,22.73
2019-04-10T12:50:22.525Z,25.67
2019-04-10T12:52:51.696Z,26.10
2019-04-10T12:55:20.598Z,28.93
2019-04-10T12:57:49.532Z,25.63
2019-04-10T13:00:20.365Z,26.67
2019-04-10T13:02:50.361Z,32.10
2019-04-10T13:05:19.405Z,28.70
2019-04-10T13:07:48.304Z,35.63
2019-04-10T13:10:18.257Z,31.80
2019-04-10T13:12:47.336Z,32.40
2019-04-10T13:15:16.344Z,31.83
2019-04-10T13:17:45.200Z,32.73
2019-04-10T13:20:15.604Z,25.70
2019-04-10T13:22:44.681Z,26.13
2019-04-10T13:25:14.425Z,27.83
2019-04-10T13:27:43.471Z,30.83
2019-04-10T13:30:14.644Z,29.57
2019-04-10T13:32:44.440Z,31.00
2019-04-10T13:35:14.006Z,35.17
2019-04-10T13:37:43.472Z,37.30
2019-04-10T13:40:13.194Z,32.03
2019-04-10T13:42:42.257Z,36.77
2019-04-10T13:45:11.407Z,37.70
2019-04-10T13:47:40.882Z,38.33
2019-04-10T13:50:10.676Z,39.77
2019-04-10T13:52:42.615Z,42.80
2019-04-10T13:55:11.909Z,36.10
2019-04-10T13:57:40.859Z,39.47
2019-04-10T14:00:19.607Z,37.57
2019-04-10T14:02:48.614Z,33.90
2019-04-10T14:05:17.923Z,55.50
2019-04-10T14:07:46.804Z,61.30
2019-04-10T14:10:16.933Z,48.03
2019-04-10T14:12:45.770Z,40.40
2019-04-10T14:15:16.013Z,41.17
2019-04-10T14:17:45.954Z,44.90
2019-04-10T14:20:17.306Z,38.67
2019-04-10T14:22:51.519Z,46.30
2019-04-10T14:25:25.524Z,40.67
2019-04-10T14:27:54.430Z,40.50
2019-04-10T14:30:40.394Z,58.10
2019-04-10T14:33:12.947Z,38.73
2019-04-10T14:35:41.871Z,42.33
2019-04-10T14:38:11.059Z,48.53
2019-04-10T14:40:40.121Z,52.13
2019-04-10T14:43:09.191Z,58.20
2019-04-10T14:45:38.064Z,57.53
2019-04-10T14:48:07.906Z,68.87
2019-04-10T14:50:37.801Z,74.83
2019-04-10T14:53:07.636Z,65.57
2019-04-10T14:55:37.608Z,58.97
2019-04-10T14:58:18.641Z,58.17
2019-04-10T15:00:46.736Z,58.90
2019-04-10T15:03:16.471Z,63.73
2019-04-10T15:05:50.529Z,63.73
2019-04-10T15:08:15.890Z,56.63
2019-04-10T15:10:44.886Z,66.37
2019-04-10T15:13:19.236Z,65.17
2019-04-10T15:15:44.904Z,73.73
2019-04-10T15:18:14.924Z,73.53
2019-04-10T15:20:45.225Z,68.83
2019-04-10T15:23:15.303Z,68.47
2019-04-10T15:25:44.431Z,64.50
2019-04-10T15:28:13.962Z,65.33
2019-04-10T15:30:44.473Z,68.37
2019-04-10T15:33:14.218Z,69.50
2019-04-10T15:35:43.222Z,65.00
2019-04-10T15:38:12.112Z,66.83
2019-04-10T15:40:42.018Z,64.37
2019-04-10T15:43:11.063Z,69.97
2019-04-10T15:45:40.060Z,73.10
2019-04-10T15:48:08.947Z,50.57
2019-04-10T15:50:37.853Z,49.37
2019-04-10T15:53:07.568Z,51.17
2019-04-10T15:55:36.492Z,56.53
2019-04-10T15:58:06.701Z,51.63
2019-04-10T16:00:37.055Z,56.47
2019-04-10T16:03:06.021Z,56.87
2019-04-10T16:05:34.866Z,55.47
2019-04-10T16:08:03.875Z,58.73
2019-04-10T16:10:34.314Z,55.33
2019-04-10T16:13:05.935Z,65.17
2019-04-10T16:15:36.774Z,58.43
2019-04-10T16:18:16.015Z,67.00
2019-04-10T16:20:47.322Z,62.47
2019-04-10T16:23:31.282Z,67.60
2019-04-10T16:26:00.912Z,66.40
2019-04-10T16:28:29.873Z,71.97
2019-04-10T16:30:59.257Z,76.43
2019-04-10T16:33:29.350Z,69.87
2019-04-10T16:35:59.050Z,73.93
2019-04-10T16:38:28.853Z,74.57
2019-04-10T16:40:58.398Z,77.87
2019-04-10T16:43:28.441Z,80.73
2019-04-10T16:45:57.546Z,79.67
2019-04-10T16:48:26.522Z,78.30
2019-04-10T16:50:56.181Z,85.77
2019-04-10T16:53:25.727Z,85.53
2019-04-10T16:55:54.839Z,82.80
2019-04-10T16:58:23.692Z,84.73
2019-04-10T17:00:53.772Z,80.50
2019-04-10T17:03:22.834Z,92.57
2019-04-10T17:05:51.632Z,157.90
2019-04-10T17:08:21.542Z,137.67
2019-04-10T17:10:50.762Z,106.00
2019-04-10T17:13:19.603Z,87.87
2019-04-10T17:15:50.098Z,74.10
2019-04-10T17:18:19.354Z,73.50
2019-04-10T17:20:48.809Z,80.80
2019-04-10T17:23:18.503Z,67.23
2019-04-10T17:25:48.620Z,57.20
2019-04-10T17:28:18.537Z,59.87
2019-04-10T17:30:47.520Z,74.93
2019-04-10T17:33:16.642Z,71.80
2019-04-10T17:35:45.870Z,78.10
2019-04-10T17:38:14.680Z,85.37
2019-04-10T17:40:48.821Z,96.70
2019-04-10T17:43:14.249Z,103.57
2019-04-10T17:45:43.144Z,103.07
2019-04-10T17:48:12.051Z,100.83
2019-04-10T17:50:41.513Z,94.67
2019-04-10T17:53:11.463Z,95.50
2019-04-10T17:55:41.967Z,93.33
2019-04-10T17:58:11.591Z,96.00
2019-04-10T18:00:43.231Z,97.17
2019-04-10T18:03:14.058Z,84.87
2019-04-10T18:05:42.856Z,103.80
2019-04-10T18:08:12.469Z,97.53
2019-04-10T18:10:48.705Z,99.03
2019-04-10T18:13:12.017Z,115.67
2019-04-10T18:15:40.988Z,212.40
2019-04-10T18:18:09.887Z,215.70
2019-04-10T18:20:38.742Z,176.73
2019-04-10T18:23:07.588Z,186.17
2019-04-10T18:25:36.682Z,212.13
2019-04-10T18:28:05.559Z,222.03
2019-04-10T18:30:35.526Z,185.40
2019-04-10T18:33:06.626Z,194.30
2019-04-10T18:35:35.673Z,196.27
2019-04-10T18:38:05.496Z,190.70
2019-04-10T18:40:35.081Z,194.10
2019-04-10T18:43:04.393Z,207.10
2019-04-10T18:45:33.621Z,208.47
2019-04-10T18:48:02.810Z,226.53
2019-04-10T18:50:32.141Z,215.20
2019-04-10T18:53:01.620Z,220.43
2019-04-10T18:55:32.253Z,228.90
2019-04-10T18:58:03.266Z,217.27
2019-04-10T19:00:52.208Z,204.77
2019-04-10T19:03:28.308Z,186.33
2019-04-10T19:06:02.589Z,212.70
2019-04-10T19:08:32.179Z,198.70
2019-04-10T19:11:16.605Z,290.60
2019-04-10T19:13:32.703Z,279.43
2019-04-10T19:16:01.690Z,258.37
2019-04-10T19:18:30.567Z,236.13
2019-04-10T19:21:00.222Z,207.90
2019-04-10T19:23:29.320Z,199.33
2019-04-10T19:25:58.894Z,205.17
2019-04-10T19:28:37.008Z,213.60
2019-04-10T19:31:08.722Z,189.67
2019-04-10T19:33:31.155Z,185.13
2019-04-10T19:36:01.491Z,190.30
2019-04-10T19:38:31.518Z,212.50
2019-04-10T19:41:00.624Z,207.37
2019-04-10T19:43:30.531Z,227.73
2019-04-10T19:46:00.662Z,206.63
2019-04-10T19:48:30.930Z,173.40
2019-04-10T19:51:00.040Z,191.13
2019-04-10T19:53:28.974Z,197.40
2019-04-10T19:55:57.794Z,198.60
2019-04-10T19:58:28.148Z,195.67
2019-04-10T20:00:57.038Z,194.70
2019-04-10T20:03:25.902Z,192.83
2019-04-10T20:05:55.552Z,183.30
2019-04-10T20:08:24.489Z,177.73
2019-04-10T20:10:53.327Z,163.67
2019-04-10T20:13:22.749Z,150.97
2019-04-10T20:15:51.700Z,154.10
2019-04-10T20:18:21.028Z,169.07
2019-04-10T20:20:51.249Z,183.43
2019-04-10T20:23:21.526Z,185.30
2019-04-10T20:25:50.536Z,220.87
2019-04-10T20:28:20.561Z,201.00
2019-04-10T20:30:52.206Z,226.17
2019-04-10T20:33:20.906Z,230.00
2019-04-10T20:35:50.833Z,206.70
2019-04-10T20:38:19.909Z,203.57
2019-04-10T20:40:49.769Z,207.37
2019-04-10T20:43:18.739Z,210.77
2019-04-10T20:45:47.631Z,201.07
2019-04-10T20:48:16.462Z,199.10
2019-04-10T20:50:45.547Z,193.47
2019-04-10T20:53:14.417Z,168.50
2019-04-10T20:55:44.045Z,151.20
2019-04-10T20:58:13.443Z,125.37
2019-04-10T21:00:43.123Z,112.63
2019-04-10T21:03:12.102Z,112.90
2019-04-10T21:05:41.007Z,102.30
2019-04-10T21:08:09.875Z,97.93
2019-04-10T21:10:38.752Z,88.27
2019-04-10T21:13:08.564Z,96.20
2019-04-10T21:15:37.687Z,142.23
2019-04-10T21:18:06.879Z,154.57
2019-04-10T21:20:36.603Z,145.27
2019-04-10T21:23:05.681Z,149.53
2019-04-10T21:25:35.089Z,170.77
2019-04-10T21:28:04.717Z,201.93
2019-04-10T21:30:38.298Z,200.17
2019-04-10T21:33:12.141Z,184.63
2019-04-10T21:35:42.248Z,183.93
2019-04-10T21:38:11.111Z,157.07
2019-04-10T21:40:41.149Z,171.53
2019-04-10T21:43:10.153Z,164.03
2019-04-10T21:45:39.191Z,138.23
2019-04-10T21:48:08.548Z,135.10
2019-04-10T21:50:37.700Z,133.93
2019-04-10T21:53:06.728Z,122.93
2019-04-10T21:55:35.649Z,141.73
2019-04-10T21:58:04.497Z,151.80
2019-04-10T22:00:52.661Z,143.63
2019-04-10T22:03:22.671Z,126.43
2019-04-10T22:06:09.290Z,120.33
2019-04-10T22:08:52.094Z,128.93
2019-04-10T22:11:21.217Z,128.77
2019-04-10T22:13:50.612Z,130.00
2019-04-10T22:16:21.946Z,142.83
2019-04-10T22:18:51.987Z,141.40
2019-04-10T22:21:20.926Z,125.33
2019-04-10T22:23:49.792Z,113.53
2019-04-10T22:26:18.913Z,96.50
2019-04-10T22:28:49.725Z,78.57
2019-04-10T22:31:18.687Z,91.90
2019-04-10T22:33:48.822Z,99.70
2019-04-10T22:36:17.779Z,97.00
2019-04-10T22:38:46.626Z,110.33
2019-04-10T22:41:23.578Z,86.13
2019-04-10T22:43:46.989Z,92.37
2019-04-10T22:46:17.119Z,92.93
2019-04-10T22:48:46.156Z,105.47
2019-04-10T22:51:15.072Z,84.27
2019-04-10T22:53:43.871Z,84.67
2019-04-10T22:56:13.003Z,108.07
2019-04-10T22:58:43.132Z,99.30
2019-04-10T23:01:13.284Z,90.93
2019-04-10T23:03:43.081Z,88.20
2019-04-10T23:06:13.285Z,91.10
2019-04-10T23:08:42.241Z,92.43
2019-04-10T23:11:11.089Z,99.60
2019-04-10T23:13:40.453Z,102.03
2019-04-10T23:16:09.823Z,97.40
2019-04-10T23:18:39.281Z,118.50
2019-04-10T23:21:08.256Z,124.60
2019-04-10T23:23:37.054Z,121.33
2019-04-10T23:26:06.873Z,92.67
2019-04-10T23:28:35.815Z,85.27
2019-04-10T23:31:05.697Z,72.30
2019-04-10T23:33:34.648Z,75.90
2019-04-10T23:36:03.486Z,75.43
2019-04-10T23:38:33.241Z,89.73
2019-04-10T23:41:02.150Z,88.03
2019-04-10T23:43:31.455Z,92.93
2019-04-10T23:46:00.442Z,66.23
2019-04-10T23:48:29.352Z,65.00
2019-04-10T23:50:58.709Z,67.03
2019-04-10T23:53:28.687Z,71.50
2019-04-10T23:55:58.723Z,64.60
2019-04-10T23:58:27.700Z,62.07
